createdAt,value
2022-08-03T00:00:36.582Z,99.90
2022-08-03T00:03:05.280Z,99.90
2022-08-03T00:05:34.105Z,99.90
2022-08-03T00:08:02.467Z,99.90
2022-08-03T00:10:32.147Z,99.90
2022-08-03T00:13:00.613Z,99.90
2022-08-03T00:15:28.779Z,99.90
2022-08-03T00:17:57.038Z,99.90
2022-08-03T00:20:25.403Z,99.90
2022-08-03T00:22:53.893Z,99.90
2022-08-03T00:25:22.038Z,99.90
2022-08-03T00:27:51.564Z,99.90
2022-08-03T00:30:19.898Z,99.90
2022-08-03T00:32:48.087Z,99.90
2022-08-03T00:35:32.606Z,99.90
2022-08-03T00:38:04.744Z,99.90
2022-08-03T00:40:33.027Z,99.90
2022-08-03T00:43:04.903Z,99.90
2022-08-03T00:45:34.637Z,99.90
2022-08-03T00:48:03.831Z,99.90
2022-08-03T00:50:34.954Z,99.90
2022-08-03T00:53:05.445Z,99.90
2022-08-03T00:55:34.124Z,99.90
2022-08-03T00:58:06.596Z,99.90
2022-08-03T01:00:38.885Z,99.90
2022-08-03T01:03:07.551Z,99.90
2022-08-03T01:05:44.072Z,99.90
2022-08-03T01:08:21.945Z,99.90
2022-08-03T01:10:58.301Z,99.90
2022-08-03T01:14:01.620Z,99.90
2022-08-03T01:16:36.856Z,99.90
2022-08-03T01:19:18.789Z,99.90
2022-08-03T01:21:57.724Z,99.90
2022-08-03T01:24:40.908Z,99.90
2022-08-03T01:27:11.921Z,99.90
2022-08-03T01:30:00.340Z,99.90
2022-08-03T01:33:02.434Z,99.90
2022-08-03T01:35:33.070Z,99.90
2022-08-03T01:38:08.151Z,99.90
2022-08-03T01:40:39.146Z,99.90
2022-08-03T01:43:10.066Z,99.90
2022-08-03T01:45:40.948Z,99.90
2022-08-03T01:48:10.647Z,99.90
2022-08-03T01:50:39.485Z,99.90
2022-08-03T01:53:08.959Z,99.90
2022-08-03T01:55:40.209Z,99.90
2022-08-03T01:58:09.625Z,99.90
2022-08-03T02:00:40.723Z,99.90
2022-08-03T02:03:09.875Z,99.90
2022-08-03T02:05:40.414Z,99.90
2022-08-03T02:08:13.959Z,99.90
2022-08-03T02:10:44.260Z,99.90
2022-08-03T02:13:13.764Z,99.90
2022-08-03T02:15:44.733Z,99.90
2022-08-03T02:18:14.215Z,99.90
2022-08-03T02:20:44.460Z,99.90
2022-08-03T02:23:12.627Z,99.90
2022-08-03T02:25:46.980Z,99.90
2022-08-03T02:28:19.408Z,99.90
2022-08-03T02:30:54.849Z,99.90
2022-08-03T02:33:28.130Z,99.90
2022-08-03T02:35:58.379Z,99.90
2022-08-03T02:38:34.029Z,99.90
2022-08-03T02:41:04.783Z,99.90
2022-08-03T02:43:56.809Z,99.90
2022-08-03T02:46:32.506Z,99.90
2022-08-03T02:49:50.084Z,99.90
2022-08-03T02:51:53.539Z,99.90
2022-08-03T02:54:23.434Z,99.90
2022-08-03T02:56:53.265Z,99.90
2022-08-03T02:59:24.609Z,99.90
2022-08-03T03:01:56.139Z,99.90
2022-08-03T03:04:26.348Z,99.90
2022-08-03T03:07:03.675Z,99.90
2022-08-03T03:09:40.495Z,99.90
2022-08-03T03:12:13.871Z,99.90
2022-08-03T03:14:42.309Z,99.90
2022-08-03T03:17:13.211Z,99.90
2022-08-03T03:19:42.823Z,99.90
2022-08-03T03:22:11.907Z,99.90
2022-08-03T03:24:42.868Z,99.90
2022-08-03T03:27:11.361Z,99.90
2022-08-03T03:29:45.185Z,99.90
2022-08-03T03:32:15.194Z,99.90
2022-08-03T03:34:44.795Z,99.90
2022-08-03T03:37:12.973Z,99.90
2022-08-03T03:39:41.173Z,99.90
2022-08-03T03:42:09.460Z,99.90
2022-08-03T03:44:37.816Z,99.90
2022-08-03T03:47:06.072Z,99.90
2022-08-03T03:49:35.834Z,99.90
2022-08-03T03:52:04.202Z,99.90
2022-08-03T03:54:41.705Z,99.90
2022-08-03T03:57:10.446Z,99.90
2022-08-03T03:59:41.999Z,99.90
2022-08-03T04:02:11.509Z,99.90
2022-08-03T04:04:58.922Z,99.90
2022-08-03T04:07:46.112Z,99.90
2022-08-03T04:10:31.637Z,99.90
2022-08-03T04:13:03.252Z,99.90
2022-08-03T04:15:33.610Z,99.90
2022-08-03T04:18:02.752Z,99.90
2022-08-03T04:20:36.484Z,99.90
2022-08-03T04:23:13.717Z,99.90
2022-08-03T04:25:45.166Z,99.90
2022-08-03T04:28:30.578Z,99.90
2022-08-03T04:31:02.368Z,99.90
2022-08-03T04:33:33.238Z,99.90
2022-08-03T04:36:08.176Z,99.90
2022-08-03T04:38:39.835Z,99.90
2022-08-03T04:41:09.551Z,99.90
2022-08-03T04:43:40.779Z,99.90
2022-08-03T04:46:10.324Z,99.90
2022-08-03T04:48:41.279Z,99.90
2022-08-03T04:51:14.389Z,99.90
2022-08-03T04:53:43.913Z,99.90
2022-08-03T04:56:12.266Z,99.90
2022-08-03T04:58:44.467Z,99.90
2022-08-03T05:01:13.155Z,99.90
2022-08-03T05:03:41.658Z,99.90
2022-08-03T05:06:11.299Z,99.90
2022-08-03T05:08:46.421Z,99.90
2022-08-03T05:11:16.362Z,99.90
2022-08-03T05:13:44.723Z,99.90
2022-08-03T05:16:13.908Z,99.90
2022-08-03T05:18:42.948Z,99.90
2022-08-03T05:21:13.958Z,99.90
2022-08-03T05:23:43.676Z,99.90
2022-08-03T05:26:12.906Z,99.90
2022-08-03T05:28:50.763Z,99.90
2022-08-03T05:31:20.440Z,99.90
2022-08-03T05:33:49.328Z,99.90
2022-08-03T05:36:17.866Z,99.90
2022-08-03T05:38:47.800Z,99.90
2022-08-03T05:41:23.110Z,99.90
2022-08-03T05:43:52.572Z,99.90
2022-08-03T05:46:21.474Z,99.90
2022-08-03T05:48:49.831Z,99.90
2022-08-03T05:51:18.393Z,99.90
2022-08-03T05:53:48.470Z,99.90
2022-08-03T05:56:17.083Z,99.90
2022-08-03T05:58:46.625Z,99.90
2022-08-03T06:01:15.804Z,99.90
2022-08-03T06:03:44.167Z,99.90
2022-08-03T06:06:12.509Z,99.90
2022-08-03T06:08:41.847Z,99.90
2022-08-03T06:11:11.976Z,99.90
2022-08-03T06:13:40.547Z,99.90
2022-08-03T06:16:08.932Z,99.90
2022-08-03T06:18:37.835Z,99.90
2022-08-03T06:21:14.265Z,99.90
2022-08-03T06:23:54.578Z,99.90
2022-08-03T06:26:29.480Z,99.90
2022-08-03T06:28:57.796Z,99.90
2022-08-03T06:31:33.412Z,99.90
2022-08-03T06:34:33.976Z,99.90
2022-08-03T06:36:52.581Z,99.90
2022-08-03T06:39:23.500Z,99.90
2022-08-03T06:41:54.500Z,99.90
2022-08-03T06:44:23.108Z,99.90
2022-08-03T06:46:51.912Z,99.90
2022-08-03T06:49:20.376Z,99.90
2022-08-03T06:52:05.022Z,99.90
2022-08-03T06:54:37.047Z,99.90
2022-08-03T06:57:08.388Z,99.90
2022-08-03T07:00:10.364Z,99.90
2022-08-03T07:02:28.425Z,99.90
2022-08-03T07:04:57.921Z,99.90
2022-08-03T07:07:26.357Z,99.90
2022-08-03T07:09:56.768Z,99.90
2022-08-03T07:12:29.974Z,99.90
2022-08-03T07:15:02.214Z,99.90
2022-08-03T07:17:33.571Z,99.90
2022-08-03T07:20:03.188Z,99.90
2022-08-03T07:22:31.548Z,99.90
2022-08-03T07:25:00.292Z,99.90
2022-08-03T07:27:30.482Z,99.90
2022-08-03T07:29:59.181Z,99.90
2022-08-03T07:32:28.589Z,99.90
2022-08-03T07:35:00.501Z,99.90
2022-08-03T07:37:30.684Z,99.90
2022-08-03T07:39:59.239Z,99.90
2022-08-03T07:42:27.531Z,99.90
2022-08-03T07:44:57.743Z,99.90
2022-08-03T07:47:34.773Z,99.90
2022-08-03T07:50:05.016Z,99.90
2022-08-03T07:52:54.061Z,99.90
2022-08-03T07:55:25.099Z,99.90
2022-08-03T07:58:04.352Z,99.90
2022-08-03T08:00:34.164Z,99.90
2022-08-03T08:03:02.389Z,99.90
2022-08-03T08:05:30.748Z,99.90
2022-08-03T08:07:59.537Z,99.90
2022-08-03T08:10:28.479Z,99.90
2022-08-03T08:12:57.295Z,99.90
2022-08-03T08:15:25.731Z,99.90
2022-08-03T08:17:57.719Z,99.90
2022-08-03T08:20:31.285Z,99.90
2022-08-03T08:23:02.676Z,99.90
2022-08-03T08:25:33.503Z,99.90
2022-08-03T08:28:30.434Z,99.90
2022-08-03T08:30:52.502Z,99.90
2022-08-03T08:33:22.569Z,99.90
2022-08-03T08:35:53.126Z,99.90
2022-08-03T08:38:21.784Z,99.90
2022-08-03T08:40:51.023Z,99.90
2022-08-03T08:43:19.342Z,99.90
2022-08-03T08:45:50.772Z,99.90
2022-08-03T08:48:24.775Z,99.90
2022-08-03T08:50:55.331Z,99.90
2022-08-03T08:53:27.776Z,99.90
2022-08-03T08:56:00.996Z,99.90
2022-08-03T08:58:32.075Z,99.90
2022-08-03T09:01:00.559Z,99.90
2022-08-03T09:03:31.032Z,99.90
2022-08-03T09:06:02.356Z,99.90
2022-08-03T09:08:32.075Z,99.90
2022-08-03T09:11:01.092Z,99.90
2022-08-03T09:13:32.213Z,99.90
2022-08-03T09:16:15.124Z,99.90
2022-08-03T09:18:46.827Z,99.90
2022-08-03T09:21:34.292Z,99.90
2022-08-03T09:24:06.242Z,99.90
2022-08-03T09:26:36.891Z,99.90
2022-08-03T09:29:13.122Z,99.90
2022-08-03T09:31:44.337Z,99.90
2022-08-03T09:34:16.299Z,99.90
2022-08-03T09:36:46.627Z,99.90
2022-08-03T09:39:16.776Z,99.90
2022-08-03T09:41:46.971Z,99.90
2022-08-03T09:44:24.553Z,99.90
2022-08-03T09:46:56.008Z,99.90
2022-08-03T09:49:26.161Z,99.90
2022-08-03T09:52:31.977Z,99.90
2022-08-03T09:54:44.518Z,99.90
2022-08-03T09:57:23.958Z,99.90
2022-08-03T10:00:01.886Z,99.90
2022-08-03T10:02:33.519Z,99.90
2022-08-03T10:05:04.046Z,99.90
2022-08-03T10:07:46.067Z,99.90
2022-08-03T10:10:28.959Z,99.90
2022-08-03T10:13:06.914Z,99.90
2022-08-03T10:16:25.220Z,99.90
2022-08-03T10:18:30.361Z,99.90
2022-08-03T10:21:05.478Z,99.90
2022-08-03T10:23:36.258Z,99.90
2022-08-03T10:26:06.135Z,99.60
2022-08-03T10:28:39.273Z,99.90
2022-08-03T10:31:12.037Z,99.90
2022-08-03T10:33:50.824Z,99.20
2022-08-03T10:36:25.447Z,97.70
2022-08-03T10:38:54.817Z,97.70
2022-08-03T10:41:24.768Z,98.20
2022-08-03T10:43:57.938Z,99.80
2022-08-03T10:46:27.631Z,98.70
2022-08-03T10:48:56.871Z,98.00
2022-08-03T10:51:32.146Z,98.30
2022-08-03T10:54:02.169Z,97.80
2022-08-03T10:56:58.435Z,98.20
2022-08-03T11:00:03.501Z,97.40
2022-08-03T11:03:03.035Z,97.70
2022-08-03T11:05:34.132Z,98.70
2022-08-03T11:08:25.271Z,97.30
2022-08-03T11:10:55.743Z,97.00
2022-08-03T11:13:26.012Z,99.90
2022-08-03T11:16:01.559Z,95.70
2022-08-03T11:18:31.572Z,95.30
2022-08-03T11:21:01.392Z,95.70
2022-08-03T11:24:02.663Z,94.10
2022-08-03T11:26:34.172Z,94.50
2022-08-03T11:29:34.961Z,94.90
2022-08-03T11:32:03.242Z,94.70
2022-08-03T11:34:31.851Z,94.40
2022-08-03T11:37:24.084Z,94.20
2022-08-03T11:39:57.253Z,94.00
2022-08-03T11:42:45.710Z,95.70
2022-08-03T11:45:14.964Z,93.80
2022-08-03T11:47:50.509Z,94.10
2022-08-03T11:50:20.267Z,93.60
2022-08-03T11:52:49.274Z,94.40
2022-08-03T11:55:22.025Z,93.90
2022-08-03T11:59:10.767Z,94.70
2022-08-03T12:00:40.659Z,93.60
2022-08-03T12:03:12.273Z,92.60
2022-08-03T12:05:51.037Z,93.20
2022-08-03T12:08:32.903Z,92.20
2022-08-03T12:11:05.814Z,93.50
2022-08-03T12:14:45.506Z,92.50
2022-08-03T12:16:35.663Z,92.50
2022-08-03T12:19:06.721Z,96.00
2022-08-03T12:21:35.241Z,93.40
2022-08-03T12:24:06.059Z,93.10
2022-08-03T12:26:58.576Z,92.80
2022-08-03T12:29:28.462Z,92.00
2022-08-03T12:31:56.949Z,94.00
2022-08-03T12:34:25.228Z,94.90
2022-08-03T12:37:00.107Z,96.20
2022-08-03T12:39:31.069Z,95.90
2022-08-03T12:42:01.830Z,95.50
2022-08-03T12:44:33.830Z,91.80
2022-08-03T12:47:03.650Z,92.40
2022-08-03T12:49:51.098Z,91.50
2022-08-03T12:52:29.927Z,92.50
2022-08-03T12:55:06.465Z,94.70
2022-08-03T12:57:44.082Z,92.60
2022-08-03T13:00:19.888Z,92.00
2022-08-03T13:03:38.215Z,93.40
2022-08-03T13:05:54.061Z,94.30
2022-08-03T13:08:23.783Z,94.00
2022-08-03T13:10:52.495Z,94.60
2022-08-03T13:13:39.615Z,93.90
2022-08-03T13:16:07.856Z,94.30
2022-08-03T13:18:36.073Z,91.80
2022-08-03T13:21:04.784Z,93.30
2022-08-03T13:23:33.941Z,93.60
2022-08-03T13:26:02.207Z,92.00
2022-08-03T13:28:31.876Z,92.80
2022-08-03T13:31:00.113Z,93.60
2022-08-03T13:33:28.815Z,94.00
2022-08-03T13:35:57.966Z,93.50
2022-08-03T13:38:27.148Z,94.90
2022-08-03T13:40:55.957Z,93.70
2022-08-03T13:43:24.225Z,93.60
2022-08-03T13:45:57.890Z,93.20
2022-08-03T13:48:36.098Z,92.50
2022-08-03T13:51:21.596Z,92.40
2022-08-03T13:53:51.597Z,92.60
2022-08-03T13:56:19.862Z,92.40
2022-08-03T13:58:48.452Z,93.50
2022-08-03T14:01:29.734Z,94.00
2022-08-03T14:04:06.758Z,95.30
2022-08-03T14:06:49.872Z,93.90
2022-08-03T14:09:18.352Z,94.10
2022-08-03T14:12:07.153Z,93.90
2022-08-03T14:14:35.965Z,94.50
2022-08-03T14:17:05.815Z,95.80
2022-08-03T14:19:34.631Z,95.80
2022-08-03T14:22:21.099Z,92.70
2022-08-03T14:24:49.588Z,93.00
2022-08-03T14:27:18.200Z,95.40
2022-08-03T14:29:46.463Z,93.00
2022-08-03T14:32:16.160Z,95.30
2022-08-03T14:34:44.437Z,93.60
2022-08-03T14:37:12.731Z,94.30
2022-08-03T14:42:29.834Z,94.40
2022-08-03T14:45:05.884Z,94.70
2022-08-03T14:50:29.467Z,95.70
2022-08-03T14:50:41.025Z,94.10
2022-08-03T14:53:12.977Z,94.30
2022-08-03T14:55:49.752Z,92.20
2022-08-03T14:58:20.738Z,92.90
2022-08-03T15:00:49.972Z,94.00
2022-08-03T15:03:23.240Z,93.80
2022-08-03T15:05:52.858Z,92.70
2022-08-03T15:08:22.550Z,93.40
2022-08-03T15:10:51.639Z,92.00
2022-08-03T15:13:20.560Z,92.10
2022-08-03T15:15:49.735Z,92.60
2022-08-03T15:18:20.307Z,92.60
2022-08-03T15:20:50.685Z,93.20
2022-08-03T15:23:23.358Z,91.30
2022-08-03T15:26:27.969Z,92.90
2022-08-03T15:28:43.253Z,92.30
2022-08-03T15:31:25.857Z,92.60
2022-08-03T15:33:56.467Z,92.70
2022-08-03T15:36:24.674Z,92.70
2022-08-03T15:38:54.712Z,92.80
2022-08-03T15:41:23.516Z,93.40
2022-08-03T15:43:52.803Z,92.60
2022-08-03T15:46:29.762Z,94.10
2022-08-03T15:49:00.383Z,94.10
2022-08-03T15:51:28.707Z,93.50
2022-08-03T15:53:58.425Z,92.70
2022-08-03T15:56:33.815Z,94.10
2022-08-03T15:59:12.573Z,92.50
2022-08-03T16:01:43.344Z,93.40
2022-08-03T16:04:13.471Z,93.90
2022-08-03T16:06:42.418Z,93.50
2022-08-03T16:09:23.558Z,93.30
2022-08-03T16:11:59.725Z,93.50
2022-08-03T16:14:35.660Z,93.90
2022-08-03T16:17:06.697Z,94.40
2022-08-03T16:19:36.330Z,94.60
2022-08-03T16:22:10.136Z,93.40
2022-08-03T16:24:38.372Z,93.90
2022-08-03T16:27:37.189Z,93.50
2022-08-03T16:29:56.751Z,93.60
2022-08-03T16:32:24.992Z,94.40
2022-08-03T16:34:54.986Z,94.50
2022-08-03T16:37:38.346Z,96.10
2022-08-03T16:40:17.702Z,95.10
2022-08-03T16:42:48.762Z,95.00
2022-08-03T16:45:17.515Z,95.40
2022-08-03T16:47:46.106Z,94.90
2022-08-03T16:50:19.853Z,95.50
2022-08-03T16:52:48.829Z,95.30
2022-08-03T16:55:43.018Z,95.40
2022-08-03T16:58:06.843Z,96.50
2022-08-03T17:00:41.856Z,96.80
2022-08-03T17:03:18.633Z,96.50
2022-08-03T17:05:51.147Z,96.00
2022-08-03T17:08:26.969Z,96.00
2022-08-03T17:10:56.565Z,95.80
2022-08-03T17:13:38.864Z,97.10
2022-08-03T17:16:10.221Z,97.10
2022-08-03T17:18:47.460Z,96.20
2022-08-03T17:21:18.960Z,96.60
2022-08-03T17:23:55.959Z,97.80
2022-08-03T17:26:30.726Z,96.60
2022-08-03T17:29:12.955Z,97.50
2022-08-03T17:31:48.778Z,96.80
2022-08-03T17:34:19.767Z,97.70
2022-08-03T17:37:06.228Z,97.60
2022-08-03T17:39:58.268Z,97.50
2022-08-03T17:42:31.217Z,97.50
2022-08-03T17:45:03.972Z,97.90
2022-08-03T17:47:42.948Z,98.50
2022-08-03T17:50:25.154Z,98.10
2022-08-03T17:53:07.154Z,98.20
2022-08-03T17:55:57.535Z,98.70
2022-08-03T17:58:38.479Z,99.20
2022-08-03T18:02:03.695Z,99.00
2022-08-03T18:04:29.776Z,99.40
2022-08-03T18:07:11.565Z,99.50
2022-08-03T18:10:03.975Z,99.90
2022-08-03T18:12:45.038Z,99.60
2022-08-03T18:15:21.972Z,99.90
2022-08-03T18:18:01.901Z,99.90
2022-08-03T18:20:41.149Z,99.90
2022-08-03T18:23:20.423Z,99.70
2022-08-03T18:25:59.125Z,99.90
2022-08-03T18:28:29.047Z,99.90
2022-08-03T18:30:58.396Z,99.90
2022-08-03T18:34:16.217Z,99.90
2022-08-03T18:36:22.025Z,99.90
2022-08-03T18:38:59.673Z,99.90
2022-08-03T18:41:32.754Z,99.90
2022-08-03T18:44:08.147Z,99.90
2022-08-03T18:47:07.409Z,99.90
2022-08-03T18:49:53.931Z,99.90
2022-08-03T18:52:27.875Z,99.90
2022-08-03T18:55:19.900Z,99.90
2022-08-03T18:58:00.999Z,99.90
2022-08-03T19:00:42.326Z,99.90
2022-08-03T19:03:42.924Z,99.90
2022-08-03T19:06:20.391Z,99.90
2022-08-03T19:08:56.513Z,99.90
2022-08-03T19:12:13.899Z,99.90
2022-08-03T19:14:25.772Z,99.90
2022-08-03T19:17:05.866Z,99.90
2022-08-03T19:19:43.936Z,99.90
2022-08-03T19:22:15.900Z,99.90
2022-08-03T19:24:47.803Z,99.90
2022-08-03T19:27:16.704Z,99.90
2022-08-03T19:29:59.142Z,99.90
2022-08-03T19:32:30.399Z,99.90
2022-08-03T19:35:00.343Z,99.90
2022-08-03T19:37:38.557Z,99.90
2022-08-03T19:40:10.845Z,99.90
2022-08-03T19:42:44.761Z,99.90
2022-08-03T19:46:04.759Z,99.90
2022-08-03T19:48:20.146Z,99.90
2022-08-03T19:50:54.063Z,99.90
2022-08-03T19:53:25.201Z,99.90
2022-08-03T19:56:07.020Z,99.90
2022-08-03T19:58:36.596Z,99.90
2022-08-03T20:01:19.358Z,99.90
2022-08-03T20:03:51.353Z,99.90
2022-08-03T20:06:23.060Z,99.90
2022-08-03T20:08:52.847Z,99.90
2022-08-03T20:11:28.814Z,99.90
2022-08-03T20:13:59.325Z,99.90
2022-08-03T20:16:29.301Z,99.90
2022-08-03T20:18:57.566Z,99.90
2022-08-03T20:21:29.805Z,99.90
2022-08-03T20:24:23.687Z,99.90
2022-08-03T20:26:55.374Z,99.90
2022-08-03T20:29:42.778Z,99.90
2022-08-03T20:32:24.486Z,99.90
2022-08-03T20:34:53.537Z,99.90
2022-08-03T20:37:23.258Z,99.90
2022-08-03T20:39:51.570Z,99.90
2022-08-03T20:42:21.409Z,99.90
2022-08-03T20:45:04.439Z,99.90
2022-08-03T20:50:27.046Z,99.90
2022-08-03T20:52:56.683Z,99.90
2022-08-03T20:55:53.767Z,99.90
2022-08-03T20:58:15.006Z,99.90
2022-08-03T21:00:43.423Z,99.90
2022-08-03T21:06:05.143Z,99.90
2022-08-03T21:08:38.881Z,99.90
2022-08-03T21:11:20.018Z,99.90
2022-08-03T21:13:12.153Z,99.90
2022-08-03T21:13:56.529Z,99.90
2022-08-03T21:16:27.617Z,99.90
2022-08-03T21:19:00.359Z,99.90
2022-08-03T21:21:34.141Z,99.90
2022-08-03T21:24:37.153Z,99.90
2022-08-03T21:27:06.041Z,99.90
2022-08-03T21:29:35.617Z,99.90
2022-08-03T21:32:32.753Z,99.90
2022-08-03T21:35:03.223Z,99.90
2022-08-03T21:37:35.282Z,99.90
2022-08-03T21:40:04.441Z,99.90
2022-08-03T21:42:32.847Z,99.90
2022-08-03T21:45:01.198Z,99.90
2022-08-03T21:47:29.645Z,99.90
2022-08-03T21:50:07.142Z,99.90
2022-08-03T21:52:43.579Z,99.90
2022-08-03T21:55:20.544Z,99.90
2022-08-03T21:57:54.396Z,99.90
2022-08-03T22:00:24.808Z,99.90
2022-08-03T22:02:57.360Z,99.90
2022-08-03T22:05:43.306Z,99.90
2022-08-03T22:08:15.328Z,99.90
2022-08-03T22:10:46.412Z,99.90
2022-08-03T22:13:23.339Z,99.90
2022-08-03T22:16:06.981Z,99.90
2022-08-03T22:18:37.639Z,99.90
2022-08-03T22:21:07.795Z,99.90
2022-08-03T22:23:41.694Z,99.90
2022-08-03T22:26:15.027Z,99.90
2022-08-03T22:28:44.346Z,99.90
2022-08-03T22:31:30.983Z,99.90
2022-08-03T22:34:01.506Z,99.90
2022-08-03T22:36:30.182Z,99.90
2022-08-03T22:39:00.722Z,99.90
2022-08-03T22:41:34.861Z,99.90
2022-08-03T22:44:07.383Z,99.90
2022-08-03T22:46:38.080Z,99.90
2022-08-03T22:49:07.691Z,99.90
2022-08-03T22:51:37.375Z,99.90
2022-08-03T22:54:12.641Z,99.90
2022-08-03T22:56:41.391Z,99.90
2022-08-03T22:59:41.378Z,99.90
2022-08-03T23:02:15.062Z,99.90
2022-08-03T23:04:52.854Z,99.90
2022-08-03T23:07:29.434Z,99.90
2022-08-03T23:09:59.473Z,99.90
2022-08-03T23:12:30.398Z,99.90
2022-08-03T23:15:03.163Z,99.90
2022-08-03T23:17:32.856Z,99.90
2022-08-03T23:20:04.866Z,99.90
2022-08-03T23:22:35.343Z,99.90
2022-08-03T23:25:06.837Z,99.90
2022-08-03T23:27:36.326Z,99.90
2022-08-03T23:30:05.213Z,99.90
2022-08-03T23:32:34.654Z,99.90
2022-08-03T23:35:23.448Z,99.90
2022-08-03T23:38:22.234Z,99.90
2022-08-03T23:40:52.654Z,99.90
2022-08-03T23:43:51.115Z,99.90
2022-08-03T23:46:11.345Z,99.90
2022-08-03T23:48:45.384Z,99.90
2022-08-03T23:51:20.946Z,99.90
2022-08-03T23:54:00.136Z,99.90
2022-08-03T23:56:41.190Z,99.90
2022-08-03T23:59:21.802Z,99.90
